Time;durP1;ratioP1;P1;durP2;ratioP2;P2;SDS_P1;SDS_P2;PMS_P1;PMS_P2;Temp;Humidity;BMP_temperature;BMP_pressure;BME280_temperature;BME280_humidity;BME280_pressure;Samples;Min_cycle;Max_cycle;Signal;HPM_P1;HPM_P2
2024/01/24 00:00:46;;;;;;;4.80;1.50;;;8.50;99.90;;;;;;5030966;22;20702;-70
2024/01/24 00:03:11;;;;;;;4.03;1.10;;;8.60;99.90;;;;;;4993605;28;22068;-70
2024/01/24 00:05:37;;;;;;;2.30;1.23;;;8.60;99.90;;;;;;4986445;28;20264;-70
2024/01/24 00:08:02;;;;;;;2.93;1.40;;;8.70;99.90;;;;;;4990730;28;20230;-71
2024/01/24 00:10:28;;;;;;;3.93;1.33;;;8.70;99.90;;;;;;4999154;28;20571;-70
2024/01/24 00:12:55;;;;;;;3.20;1.60;;;8.80;99.90;;;;;;4990455;28;20183;-70
2024/01/24 00:15:20;;;;;;;3.63;1.40;;;8.80;99.90;;;;;;4990024;28;20267;-70
2024/01/24 00:17:46;;;;;;;5.40;2.30;;;8.80;99.90;;;;;;4988620;28;20525;-70
2024/01/24 00:20:12;;;;;;;3.50;1.60;;;8.90;99.90;;;;;;4988410;28;20241;-70
2024/01/24 00:22:38;;;;;;;3.20;1.60;;;8.90;99.90;;;;;;4988368;28;20184;-70
2024/01/24 00:25:04;;;;;;;4.20;1.70;;;8.90;99.90;;;;;;4987724;28;20864;-70
2024/01/24 00:27:29;;;;;;;2.57;1.60;;;9.00;99.90;;;;;;4990146;28;20206;-70
2024/01/24 00:29:55;;;;;;;5.90;1.60;;;9.00;99.90;;;;;;4990619;28;20205;-70
2024/01/24 00:32:21;;;;;;;5.23;1.60;;;9.00;99.90;;;;;;4988745;28;20180;-70
2024/01/24 00:34:47;;;;;;;4.00;1.57;;;9.00;99.90;;;;;;4995025;28;20188;-70
2024/01/24 00:37:12;;;;;;;2.10;1.50;;;9.10;99.90;;;;;;4994646;28;20445;-70
2024/01/24 00:39:38;;;;;;;2.83;1.30;;;9.10;99.90;;;;;;4994380;28;20676;-70
2024/01/24 00:42:04;;;;;;;4.73;3.90;;;9.10;99.90;;;;;;4996099;28;20180;-71
2024/01/24 00:44:30;;;;;;;10.57;2.00;;;9.10;99.90;;;;;;4993921;28;20516;-70
2024/01/24 00:46:55;;;;;;;2.50;1.37;;;9.10;99.90;;;;;;4994197;28;20448;-70
2024/01/24 00:49:22;;;;;;;4.70;1.03;;;9.20;99.90;;;;;;4992270;28;21048;-70
2024/01/24 00:51:48;;;;;;;2.20;1.00;;;9.30;99.90;;;;;;4995227;28;20812;-70
2024/01/24 00:54:14;;;;;;;5.30;1.50;;;9.20;99.90;;;;;;4991483;28;20445;-70
2024/01/24 00:56:40;;;;;;;4.10;1.50;;;9.30;99.90;;;;;;4990924;28;20192;-70
2024/01/24 00:59:06;;;;;;;3.27;1.40;;;9.30;99.90;;;;;;4995751;28;20659;-70
2024/01/24 01:01:31;;;;;;;6.73;1.30;;;9.40;99.90;;;;;;4993586;28;20461;-70
2024/01/24 01:03:57;;;;;;;3.00;1.73;;;9.50;99.90;;;;;;4989509;28;20180;-70
2024/01/24 01:06:22;;;;;;;5.23;2.27;;;9.50;99.90;;;;;;4993427;28;20594;-70
2024/01/24 01:08:48;;;;;;;2.83;1.50;;;9.50;99.90;;;;;;4994282;28;20179;-70
2024/01/24 01:11:14;;;;;;;6.50;1.70;;;9.50;99.90;;;;;;4994098;28;20287;-71
2024/01/24 01:13:39;;;;;;;3.27;1.50;;;9.50;99.90;;;;;;4994213;28;20190;-70
2024/01/24 01:16:05;;;;;;;2.83;1.30;;;9.50;99.90;;;;;;4993263;28;20203;-71
2024/01/24 01:18:30;;;;;;;3.67;1.37;;;9.40;99.90;;;;;;4993463;28;20195;-70
2024/01/24 01:20:56;;;;;;;2.83;1.30;;;9.40;99.90;;;;;;4991941;28;20203;-70
2024/01/24 01:23:21;;;;;;;4.10;1.27;;;9.50;99.90;;;;;;4991126;28;20226;-71
2024/01/24 01:25:47;;;;;;;3.03;1.50;;;9.50;99.90;;;;;;4992819;28;20250;-70
2024/01/24 01:28:13;;;;;;;5.53;1.40;;;9.50;99.90;;;;;;4992103;28;20187;-71
2024/01/24 01:30:38;;;;;;;2.47;1.50;;;9.50;99.90;;;;;;4991929;28;20246;-70
2024/01/24 01:33:04;;;;;;;2.30;1.33;;;9.40;99.90;;;;;;4990789;28;20179;-70
2024/01/24 01:35:29;;;;;;;4.07;1.27;;;9.50;99.90;;;;;;4992546;28;20271;-71
2024/01/24 01:37:55;;;;;;;2.20;1.27;;;9.50;99.90;;;;;;4993216;28;20195;-70
2024/01/24 01:40:20;;;;;;;4.80;1.23;;;9.50;99.90;;;;;;4993283;28;20578;-70
2024/01/24 01:42:46;;;;;;;4.60;1.50;;;9.50;99.90;;;;;;4989632;28;20545;-70
2024/01/24 01:45:12;;;;;;;4.50;1.57;;;9.40;99.90;;;;;;4992521;28;20559;-70
2024/01/24 01:47:39;;;;;;;8.73;1.53;;;9.40;99.90;;;;;;4993299;28;20168;-70
2024/01/24 01:50:16;;;;;;;7.83;1.30;;;9.40;99.90;;;;;;4992301;28;20489;-71
2024/01/24 01:52:42;;;;;;;2.73;1.40;;;9.40;99.90;;;;;;4992353;28;20442;-70
2024/01/24 01:55:10;;;;;;;2.93;1.63;;;9.40;99.90;;;;;;4993642;28;20442;-70
2024/01/24 01:57:41;;;;;;;3.43;1.17;;;9.40;99.90;;;;;;4992822;28;20485;-70
2024/01/24 02:00:09;;;;;;;3.70;1.37;;;9.40;99.90;;;;;;4992241;28;20469;-70
2024/01/24 02:02:36;;;;;;;3.20;1.07;;;9.40;99.90;;;;;;4988752;28;20438;-70
2024/01/24 02:05:02;;;;;;;5.23;1.20;;;9.50;99.90;;;;;;4992541;28;21081;-70
2024/01/24 02:07:27;;;;;;;4.90;1.33;;;9.40;99.90;;;;;;4984219;28;20437;-71
2024/01/24 02:09:54;;;;;;;7.47;1.77;;;9.50;99.90;;;;;;4982823;28;20498;-70
2024/01/24 02:12:20;;;;;;;2.40;1.27;;;9.40;99.90;;;;;;4992239;28;20171;-70
2024/01/24 02:14:46;;;;;;;1.97;1.10;;;9.40;99.90;;;;;;4992935;28;20446;-70
2024/01/24 02:17:11;;;;;;;4.17;1.10;;;9.40;99.90;;;;;;4991088;28;20570;-70
2024/01/24 02:19:37;;;;;;;2.23;1.03;;;9.40;99.90;;;;;;4983121;28;20470;-71
2024/01/24 02:22:03;;;;;;;3.40;1.70;;;9.40;99.90;;;;;;4971197;28;20226;-71
2024/01/24 02:24:29;;;;;;;2.80;1.37;;;9.40;99.90;;;;;;4979467;28;20250;-71
2024/01/24 02:26:54;;;;;;;1.23;1.00;;;9.40;99.90;;;;;;4990473;28;20565;-70
2024/01/24 02:29:19;;;;;;;1.37;1.17;;;9.40;99.90;;;;;;4990425;28;20443;-70
2024/01/24 02:31:45;;;;;;;4.57;2.90;;;9.40;99.90;;;;;;4991262;28;20175;-70
2024/01/24 02:34:10;;;;;;;5.37;1.60;;;9.40;99.90;;;;;;4989885;28;20194;-70
2024/01/24 02:36:36;;;;;;;5.00;1.40;;;9.40;99.90;;;;;;4992657;28;20218;-70
2024/01/24 02:39:02;;;;;;;2.37;1.50;;;9.40;99.90;;;;;;4989023;28;20568;-70
2024/01/24 02:41:27;;;;;;;1.70;1.60;;;9.40;99.90;;;;;;4989285;28;20180;-70
2024/01/24 02:43:53;;;;;;;1.33;1.20;;;9.40;99.90;;;;;;4991159;28;21115;-70
2024/01/24 02:46:18;;;;;;;3.23;2.00;;;9.40;99.90;;;;;;4991546;28;20203;-70
2024/01/24 02:48:44;;;;;;;3.33;1.33;;;9.40;99.90;;;;;;4992830;28;20178;-70
2024/01/24 02:51:09;;;;;;;3.03;1.20;;;9.40;99.90;;;;;;5002423;28;20234;-70
2024/01/24 02:53:35;;;;;;;1.57;0.90;;;9.40;99.90;;;;;;4991918;28;20187;-70
2024/01/24 02:56:01;;;;;;;3.70;1.10;;;9.40;99.90;;;;;;4990984;28;20310;-70
2024/01/24 02:58:26;;;;;;;4.93;1.60;;;9.50;99.90;;;;;;4990734;28;20563;-70
2024/01/24 03:00:52;;;;;;;5.47;1.60;;;9.50;99.90;;;;;;4989426;28;20223;-70
2024/01/24 03:03:17;;;;;;;1.90;1.03;;;9.50;99.90;;;;;;4989739;28;20191;-70
2024/01/24 03:05:43;;;;;;;3.03;1.17;;;9.50;99.90;;;;;;4992108;28;20207;-70
2024/01/24 03:08:10;;;;;;;4.00;1.07;;;9.50;99.90;;;;;;4990112;28;20188;-71
2024/01/24 03:10:35;;;;;;;8.27;1.60;;;9.50;99.90;;;;;;4989879;28;20210;-70
2024/01/24 03:13:01;;;;;;;2.60;1.17;;;9.50;99.90;;;;;;4990359;28;20438;-70
2024/01/24 03:15:26;;;;;;;4.40;1.40;;;9.50;99.90;;;;;;4990030;28;20752;-70
2024/01/24 03:17:52;;;;;;;2.17;1.10;;;9.50;99.90;;;;;;4991900;28;20196;-70
2024/01/24 03:20:18;;;;;;;5.00;1.90;;;9.50;99.90;;;;;;4989904;28;20930;-70
2024/01/24 03:22:44;;;;;;;4.00;1.10;;;9.50;99.90;;;;;;4991609;28;20525;-70
2024/01/24 03:25:12;;;;;;;1.27;1.10;;;9.50;99.90;;;;;;4990412;28;20616;-70
2024/01/24 03:27:38;;;;;;;3.30;1.43;;;9.60;99.90;;;;;;4992655;28;20435;-70
2024/01/24 03:30:04;;;;;;;6.23;1.80;;;9.60;99.90;;;;;;4988390;28;20465;-70
2024/01/24 03:32:29;;;;;;;2.60;1.17;;;9.60;99.90;;;;;;4989533;28;20222;-70
2024/01/24 03:34:56;;;;;;;3.27;1.07;;;9.60;99.90;;;;;;4987659;28;20442;-70
2024/01/24 03:37:22;;;;;;;2.20;1.17;;;9.70;99.90;;;;;;4991910;28;20190;-70
2024/01/24 03:39:47;;;;;;;6.63;1.80;;;9.70;99.90;;;;;;4990219;28;20975;-70
2024/01/24 03:42:13;;;;;;;4.90;1.60;;;9.70;99.90;;;;;;4989421;28;20652;-71
2024/01/24 03:44:39;;;;;;;2.80;1.40;;;9.70;99.90;;;;;;4990341;28;20215;-70
2024/01/24 03:47:05;;;;;;;3.93;1.53;;;9.80;99.90;;;;;;4989534;28;20183;-70
2024/01/24 03:49:31;;;;;;;2.53;1.27;;;9.80;99.90;;;;;;4991114;28;20195;-70
2024/01/24 03:51:56;;;;;;;1.80;1.30;;;9.90;99.90;;;;;;4984675;28;20431;-70
2024/01/24 03:54:22;;;;;;;1.53;1.10;;;9.90;99.90;;;;;;4991023;28;20588;-70
2024/01/24 03:56:48;;;;;;;3.30;1.43;;;9.90;99.90;;;;;;4990496;28;20237;-70
2024/01/24 03:59:14;;;;;;;1.90;1.20;;;9.90;99.90;;;;;;4991390;28;20269;-70
2024/01/24 04:01:39;;;;;;;2.73;1.63;;;9.90;99.90;;;;;;4988600;28;20799;-70
2024/01/24 04:04:04;;;;;;;1.90;1.37;;;9.90;99.90;;;;;;4982462;28;20230;-70
2024/01/24 04:06:30;;;;;;;1.37;0.77;;;9.90;99.90;;;;;;4971175;28;20311;-70
2024/01/24 04:08:55;;;;;;;3.93;1.20;;;10.00;99.90;;;;;;4989486;28;20306;-71
2024/01/24 04:11:21;;;;;;;3.50;1.37;;;10.00;99.90;;;;;;4990510;28;20211;-70
2024/01/24 04:13:56;;;;;;;3.23;1.40;;;9.90;99.90;;;;;;4990933;28;20195;-70
2024/01/24 04:16:22;;;;;;;1.90;1.47;;;9.90;99.90;;;;;;4989328;28;20278;-70
2024/01/24 04:18:50;;;;;;;6.23;1.40;;;9.90;99.90;;;;;;4991427;28;20573;-70
2024/01/24 04:21:16;;;;;;;1.90;1.30;;;9.90;99.90;;;;;;4989488;28;20983;-70
2024/01/24 04:23:41;;;;;;;5.00;2.30;;;9.90;99.90;;;;;;4990316;28;20529;-70
2024/01/24 04:26:07;;;;;;;4.90;1.30;;;9.90;99.90;;;;;;4983703;28;20517;-71
2024/01/24 04:28:33;;;;;;;2.17;1.87;;;10.00;99.90;;;;;;4987735;28;20201;-70
2024/01/24 04:30:59;;;;;;;4.23;1.50;;;10.00;99.90;;;;;;4988463;28;20828;-70
2024/01/24 04:33:24;;;;;;;2.53;1.73;;;10.00;99.90;;;;;;4989513;28;20253;-71
2024/01/24 04:35:50;;;;;;;3.50;1.70;;;10.10;99.90;;;;;;4989180;28;20443;-71
2024/01/24 04:38:16;;;;;;;2.00;1.33;;;10.10;99.90;;;;;;4989505;28;20199;-70
2024/01/24 04:40:42;;;;;;;4.00;1.57;;;10.20;99.90;;;;;;4991611;28;20218;-70
2024/01/24 04:43:08;;;;;;;2.10;1.33;;;10.20;99.90;;;;;;4991586;28;20194;-70
2024/01/24 04:45:34;;;;;;;4.27;2.13;;;10.30;99.90;;;;;;4989888;28;20212;-70
2024/01/24 04:47:59;;;;;;;8.37;1.70;;;10.30;99.90;;;;;;4989272;28;20467;-70
2024/01/24 04:50:25;;;;;;;4.93;1.50;;;10.40;99.90;;;;;;4991613;28;20196;-70
2024/01/24 04:52:50;;;;;;;5.27;2.20;;;10.40;99.90;;;;;;4989771;28;20215;-70
2024/01/24 04:55:16;;;;;;;6.87;2.30;;;10.40;99.90;;;;;;4988735;28;20199;-70
2024/01/24 04:57:42;;;;;;;2.70;1.40;;;10.50;99.90;;;;;;4988551;28;20219;-70
2024/01/24 05:00:08;;;;;;;1.90;1.60;;;10.50;99.90;;;;;;4989210;28;20308;-70
2024/01/24 05:02:34;;;;;;;1.50;1.10;;;10.50;99.90;;;;;;4989070;28;20192;-70
2024/01/24 05:04:59;;;;;;;2.17;1.37;;;10.50;99.90;;;;;;4990731;28;20823;-70
2024/01/24 05:07:25;;;;;;;4.20;1.70;;;10.50;99.90;;;;;;4989611;28;20182;-70
2024/01/24 05:09:50;;;;;;;4.30;1.50;;;10.60;99.90;;;;;;4990953;28;20192;-70
2024/01/24 05:12:16;;;;;;;5.57;1.50;;;10.60;99.90;;;;;;4990379;28;20179;-70
2024/01/24 05:14:42;;;;;;;2.80;2.50;;;10.60;99.90;;;;;;4990310;28;20226;-70
2024/01/24 05:17:08;;;;;;;5.90;1.67;;;10.60;99.90;;;;;;4989365;28;20179;-71
2024/01/24 05:19:34;;;;;;;2.13;1.33;;;10.70;99.90;;;;;;4990497;28;20454;-70
2024/01/24 05:21:59;;;;;;;2.30;1.50;;;10.70;99.90;;;;;;4993558;28;20196;-70
2024/01/24 05:24:25;;;;;;;1.53;1.43;;;10.80;99.90;;;;;;4992552;28;20626;-70
2024/01/24 05:26:51;;;;;;;4.20;1.77;;;10.80;99.90;;;;;;4991692;28;21155;-70
2024/01/24 05:29:17;;;;;;;2.90;1.50;;;10.80;99.90;;;;;;4993642;28;20179;-70
2024/01/24 05:31:42;;;;;;;2.17;1.63;;;10.80;99.90;;;;;;4991702;28;20810;-70
2024/01/24 05:34:08;;;;;;;3.57;1.63;;;10.90;99.90;;;;;;4992755;28;20183;-70
2024/01/24 05:36:34;;;;;;;4.60;1.60;;;10.90;99.90;;;;;;4987879;28;20179;-70
2024/01/24 05:38:59;;;;;;;3.20;1.50;;;10.90;99.90;;;;;;4993343;28;20218;-70
2024/01/24 05:41:25;;;;;;;2.20;0.97;;;11.00;99.90;;;;;;4992774;28;20250;-70
2024/01/24 05:43:50;;;;;;;2.10;1.60;;;11.00;99.90;;;;;;4985031;28;20194;-70
2024/01/24 05:46:16;;;;;;;4.50;1.43;;;11.00;99.90;;;;;;4982036;28;20200;-70
2024/01/24 05:48:41;;;;;;;2.80;1.30;;;11.00;99.90;;;;;;4992710;28;20596;-70
2024/01/24 05:51:07;;;;;;;1.77;1.07;;;11.00;99.90;;;;;;4994618;28;20206;-70
2024/01/24 05:53:33;;;;;;;1.43;1.07;;;11.00;99.90;;;;;;4992097;28;20171;-70
2024/01/24 05:55:58;;;;;;;3.60;1.50;;;11.00;99.90;;;;;;4992152;28;20648;-70
2024/01/24 05:58:24;;;;;;;2.10;1.40;;;11.00;99.90;;;;;;4993627;28;20438;-70
2024/01/24 06:00:50;;;;;;;2.63;2.07;;;11.00;99.90;;;;;;4991557;28;20227;-70
2024/01/24 06:03:15;;;;;;;2.37;1.17;;;11.00;99.90;;;;;;4987955;28;20521;-71
2024/01/24 06:05:41;;;;;;;1.73;1.63;;;11.00;99.90;;;;;;4996286;28;20206;-70
2024/01/24 06:08:06;;;;;;;1.93;1.50;;;11.00;99.90;;;;;;4993184;28;20183;-70
2024/01/24 06:10:33;;;;;;;3.93;2.40;;;11.00;99.90;;;;;;4998198;28;20204;-70
2024/01/24 06:12:58;;;;;;;3.30;1.60;;;11.00;99.90;;;;;;4990905;28;20266;-70
2024/01/24 06:15:24;;;;;;;2.03;1.30;;;11.00;99.90;;;;;;4991772;28;20580;-70
2024/01/24 06:17:50;;;;;;;2.60;1.87;;;11.00;99.90;;;;;;4992842;28;20186;-70
2024/01/24 06:20:15;;;;;;;1.83;1.70;;;11.00;99.90;;;;;;4986742;28;20278;-70
2024/01/24 06:22:41;;;;;;;2.87;1.50;;;11.00;99.90;;;;;;4983164;28;20233;-70
2024/01/24 06:25:07;;;;;;;2.10;2.00;;;11.10;99.90;;;;;;4985636;28;20215;-70
2024/01/24 06:27:34;;;;;;;1.77;1.47;;;11.10;99.90;;;;;;4987199;28;20800;-70
2024/01/24 06:30:00;;;;;;;1.90;1.23;;;11.10;99.90;;;;;;4984045;28;20458;-70
2024/01/24 06:32:25;;;;;;;8.67;5.13;;;11.10;99.90;;;;;;4985179;28;20439;-70
2024/01/24 06:34:51;;;;;;;2.30;1.40;;;11.10;99.90;;;;;;4985396;28;20179;-70
2024/01/24 06:37:16;;;;;;;2.63;1.40;;;11.10;99.90;;;;;;4985248;28;20266;-70
2024/01/24 06:39:42;;;;;;;2.17;1.63;;;11.10;99.90;;;;;;4984756;28;20567;-70
2024/01/24 06:42:07;;;;;;;1.93;1.30;;;11.10;99.90;;;;;;4985254;28;20191;-71
2024/01/24 06:44:33;;;;;;;3.23;2.10;;;11.10;99.90;;;;;;4984216;28;20219;-70
2024/01/24 06:46:58;;;;;;;1.83;1.40;;;11.10;99.90;;;;;;4984640;28;20175;-70
2024/01/24 06:49:24;;;;;;;1.27;1.00;;;11.10;99.90;;;;;;4985858;28;20214;-70
2024/01/24 06:51:50;;;;;;;2.20;1.47;;;11.10;99.90;;;;;;4983155;28;20191;-70
2024/01/24 06:54:16;;;;;;;2.83;1.43;;;11.10;99.90;;;;;;4985317;28;20208;-70
2024/01/24 06:56:43;;;;;;;3.80;1.60;;;11.10;99.90;;;;;;4984751;28;20481;-70
2024/01/24 06:59:09;;;;;;;1.70;1.47;;;11.10;99.90;;;;;;4983798;28;20176;-70
2024/01/24 07:01:35;;;;;;;1.70;1.30;;;11.00;99.90;;;;;;4982493;28;20537;-70
2024/01/24 07:04:00;;;;;;;1.87;1.10;;;10.90;99.90;;;;;;4983833;28;20220;-70
2024/01/24 07:06:26;;;;;;;5.77;1.57;;;10.90;99.90;;;;;;4985577;28;20249;-70
2024/01/24 07:08:51;;;;;;;2.53;1.07;;;10.90;99.90;;;;;;4984882;28;20187;-70
2024/01/24 07:11:17;;;;;;;3.00;1.23;;;10.80;99.90;;;;;;4982063;28;20665;-70
2024/01/24 07:13:43;;;;;;;2.50;1.47;;;10.80;99.90;;;;;;4985309;28;20179;-70
2024/01/24 07:16:08;;;;;;;1.57;1.17;;;10.80;99.90;;;;;;4983474;28;20563;-70
2024/01/24 07:18:34;;;;;;;2.17;1.30;;;10.90;99.90;;;;;;4983314;28;20184;-70
2024/01/24 07:21:00;;;;;;;2.70;1.93;;;10.90;99.90;;;;;;4990577;28;20207;-70
2024/01/24 07:23:26;;;;;;;8.70;4.57;;;10.90;99.90;;;;;;4987179;28;20181;-70
2024/01/24 07:25:51;;;;;;;14.80;7.53;;;10.90;99.90;;;;;;4985029;28;20482;-70
2024/01/24 07:28:18;;;;;;;2.40;1.83;;;10.90;99.90;;;;;;4985567;28;20183;-70
2024/01/24 07:30:44;;;;;;;3.30;1.30;;;11.00;99.90;;;;;;4988570;28;21877;-70
2024/01/24 07:33:09;;;;;;;3.97;2.40;;;11.00;99.90;;;;;;4984234;28;20522;-70
2024/01/24 07:35:35;;;;;;;4.07;1.30;;;11.00;99.90;;;;;;4984803;28;20790;-70
2024/01/24 07:38:00;;;;;;;3.60;1.60;;;11.00;99.90;;;;;;4992746;28;21374;-70
2024/01/24 07:40:26;;;;;;;1.70;1.40;;;11.00;99.90;;;;;;4996554;28;20203;-71
2024/01/24 07:42:52;;;;;;;2.40;2.20;;;11.00;99.90;;;;;;4999961;28;20183;-71
2024/01/24 07:45:18;;;;;;;1.70;1.60;;;11.00;99.90;;;;;;5007094;28;20697;-70
2024/01/24 07:47:44;;;;;;;8.33;1.87;;;11.10;99.90;;;;;;5003879;28;21132;-70
2024/01/24 07:50:11;;;;;;;2.20;2.00;;;11.20;99.90;;;;;;5012608;28;20564;-70
2024/01/24 07:52:37;;;;;;;3.47;1.10;;;11.30;99.90;;;;;;4988338;28;20190;-70
2024/01/24 07:55:03;;;;;;;3.80;1.70;;;11.40;99.90;;;;;;4989350;28;20446;-71
2024/01/24 07:57:28;;;;;;;1.50;1.40;;;11.50;99.90;;;;;;4991068;28;20633;-71
2024/01/24 07:59:54;;;;;;;2.60;1.50;;;11.60;99.90;;;;;;4990928;28;20528;-71
2024/01/24 08:02:19;;;;;;;4.03;2.93;;;11.60;99.90;;;;;;4988358;28;20176;-71
2024/01/24 08:04:45;;;;;;;3.97;2.07;;;11.70;99.90;;;;;;4991248;28;20214;-70
2024/01/24 08:07:10;;;;;;;2.63;1.73;;;11.70;99.90;;;;;;4995341;28;20649;-70
2024/01/24 08:09:36;;;;;;;2.20;2.00;;;11.80;99.90;;;;;;5001373;28;20234;-72
2024/01/24 08:12:01;;;;;;;1.90;1.20;;;11.90;99.90;;;;;;5002493;28;20270;-70
2024/01/24 08:14:27;;;;;;;2.80;1.67;;;11.90;99.90;;;;;;5000956;28;20190;-70
2024/01/24 08:17:06;;;;;;;2.40;2.20;;;12.00;99.90;;;;;;4995890;28;20183;-70
2024/01/24 08:19:32;;;;;;;1.70;1.40;;;12.00;99.90;;;;;;4992845;28;20209;-70
2024/01/24 08:21:58;;;;;;;1.27;1.17;;;12.10;99.90;;;;;;4996435;28;20442;-70
2024/01/24 08:24:24;;;;;;;1.30;0.80;;;12.10;99.90;;;;;;5003185;28;20438;-71
2024/01/24 08:26:51;;;;;;;2.50;1.20;;;12.00;99.90;;;;;;5006649;28;20539;-71
2024/01/24 08:29:17;;;;;;;2.50;0.87;;;12.00;99.90;;;;;;4996147;28;20454;-71
2024/01/24 08:31:43;;;;;;;1.73;1.00;;;12.10;99.90;;;;;;4989461;28;20473;-71
2024/01/24 08:34:09;;;;;;;0.93;0.80;;;12.10;99.90;;;;;;4998922;28;20474;-71
2024/01/24 08:36:34;;;;;;;0.70;0.63;;;12.10;99.90;;;;;;5004645;28;20290;-71
2024/01/24 08:39:01;;;;;;;1.13;0.80;;;12.20;99.90;;;;;;4995160;28;20187;-71
2024/01/24 08:41:28;;;;;;;2.03;0.80;;;12.20;99.90;;;;;;5011855;28;20195;-71
2024/01/24 08:43:57;;;;;;;0.80;0.80;;;12.10;99.90;;;;;;5006333;28;20474;-71
2024/01/24 08:46:22;;;;;;;0.87;0.83;;;12.20;99.90;;;;;;4992781;28;20464;-71
2024/01/24 08:48:48;;;;;;;0.50;0.50;;;12.20;99.90;;;;;;4998301;28;20434;-71
2024/01/24 08:51:13;;;;;;;0.97;0.90;;;12.20;99.90;;;;;;5011122;28;20195;-71
2024/01/24 08:53:39;;;;;;;0.70;0.60;;;12.20;99.90;;;;;;4997825;28;20660;-71
2024/01/24 08:56:04;;;;;;;0.70;0.70;;;12.20;99.90;;;;;;5013506;28;20244;-71
2024/01/24 08:58:30;;;;;;;1.77;0.80;;;12.30;99.90;;;;;;4999645;28;20650;-71
2024/01/24 09:00:55;;;;;;;0.87;0.87;;;12.30;99.90;;;;;;4998980;28;20215;-71
2024/01/24 09:03:21;;;;;;;0.90;0.80;;;12.30;99.90;;;;;;5006819;28;20183;-71
2024/01/24 09:05:47;;;;;;;0.50;0.50;;;12.40;99.90;;;;;;5013643;28;20575;-71
2024/01/24 09:08:12;;;;;;;0.97;0.60;;;12.40;99.90;;;;;;5008016;28;20645;-71
2024/01/24 09:10:37;;;;;;;1.00;0.90;;;12.40;99.90;;;;;;5011804;28;20191;-71
2024/01/24 09:13:03;;;;;;;1.60;0.90;;;12.50;99.90;;;;;;5008008;28;20641;-71
2024/01/24 09:15:29;;;;;;;0.90;0.60;;;12.50;99.90;;;;;;5000869;28;20180;-71
2024/01/24 09:17:54;;;;;;;0.80;0.80;;;12.50;99.90;;;;;;5003844;28;20195;-71
2024/01/24 09:20:20;;;;;;;1.73;1.40;;;12.50;99.90;;;;;;4998831;28;20196;-71
2024/01/24 09:22:45;;;;;;;1.40;1.30;;;12.60;99.90;;;;;;4999089;28;20195;-71
2024/01/24 09:25:11;;;;;;;2.10;0.90;;;12.60;99.90;;;;;;4996578;28;20235;-71
2024/01/24 09:27:37;;;;;;;1.33;0.93;;;12.60;99.90;;;;;;4996801;28;20234;-71
2024/01/24 09:30:03;;;;;;;0.87;0.70;;;12.50;99.90;;;;;;5007277;28;20209;-71
2024/01/24 09:32:29;;;;;;;0.67;0.67;;;12.50;99.90;;;;;;4999502;28;20179;-71
2024/01/24 09:34:54;;;;;;;1.00;0.80;;;12.40;99.90;;;;;;5002010;28;20950;-71
2024/01/24 09:37:20;;;;;;;1.60;1.50;;;12.40;99.90;;;;;;4999814;28;20714;-71
2024/01/24 09:39:46;;;;;;;0.80;0.80;;;12.30;99.90;;;;;;5003065;28;20231;-71
2024/01/24 09:42:25;;;;;;;1.27;0.60;;;12.10;99.90;;;;;;4994995;28;20426;-71
2024/01/24 09:44:51;;;;;;;1.40;0.70;;;12.10;99.90;;;;;;4997584;28;21014;-71
2024/01/24 09:47:19;;;;;;;3.30;2.60;;;12.10;99.90;;;;;;4997208;28;20444;-71
2024/01/24 09:49:45;;;;;;;0.93;0.70;;;12.00;99.90;;;;;;5003267;28;20541;-71
2024/01/24 09:52:12;;;;;;;1.07;0.97;;;12.00;99.90;;;;;;5008597;28;20509;-71
2024/01/24 09:54:38;;;;;;;0.60;0.60;;;12.10;99.90;;;;;;4995335;28;20202;-71
2024/01/24 09:57:06;;;;;;;0.90;0.70;;;12.10;99.90;;;;;;4994641;28;20493;-71
2024/01/24 09:59:32;;;;;;;1.07;0.97;;;12.30;99.90;;;;;;5004690;28;21058;-71
2024/01/24 10:01:58;;;;;;;0.70;0.70;;;12.30;99.90;;;;;;5001148;28;20437;-71
2024/01/24 10:04:24;;;;;;;0.60;0.57;;;12.40;99.90;;;;;;5004944;28;20687;-71
2024/01/24 10:06:52;;;;;;;0.90;0.70;;;12.60;99.90;;;;;;5000947;28;20431;-71
2024/01/24 10:09:19;;;;;;;0.60;0.60;;;12.70;99.90;;;;;;5009111;28;20421;-71
2024/01/24 10:11:44;;;;;;;0.60;0.53;;;12.90;99.90;;;;;;5002726;28;20958;-71
2024/01/24 10:14:11;;;;;;;0.53;0.53;;;13.00;99.90;;;;;;4995634;28;20439;-71
2024/01/24 10:16:37;;;;;;;1.10;0.70;;;13.00;99.90;;;;;;5000197;28;20187;-71
2024/01/24 10:19:04;;;;;;;0.63;0.63;;;12.90;99.90;;;;;;5005035;28;20443;-71
2024/01/24 10:21:30;;;;;;;0.80;0.80;;;12.80;99.90;;;;;;5004144;28;20829;-71
2024/01/24 10:23:55;;;;;;;0.90;0.73;;;13.00;99.90;;;;;;4990869;28;20442;-71
2024/01/24 10:26:21;;;;;;;1.37;0.67;;;13.60;99.90;;;;;;4997272;28;20210;-71
2024/01/24 10:28:49;;;;;;;0.77;0.67;;;14.60;99.90;;;;;;5004500;28;20211;-71
2024/01/24 10:31:14;;;;;;;0.80;0.80;;;15.10;99.90;;;;;;5002830;28;20490;-71
2024/01/24 10:33:40;;;;;;;0.93;0.93;;;15.30;99.90;;;;;;5004207;28;20437;-71
2024/01/24 10:36:08;;;;;;;2.03;0.80;;;15.30;99.90;;;;;;5001749;28;20218;-71
2024/01/24 10:38:41;;;;;;;0.80;0.70;;;15.30;99.90;;;;;;4997714;28;20718;-71
2024/01/24 10:41:11;;;;;;;1.10;1.10;;;15.50;99.90;;;;;;5005366;28;20439;-71
2024/01/24 10:43:41;;;;;;;1.80;1.70;;;15.40;99.90;;;;;;5003007;28;20517;-71
2024/01/24 10:46:08;;;;;;;1.47;1.37;;;14.80;99.90;;;;;;4996670;28;20532;-71
2024/01/24 10:48:34;;;;;;;1.30;1.00;;;14.30;99.90;;;;;;4999405;28;20441;-71
2024/01/24 10:50:59;;;;;;;0.90;0.90;;;14.10;99.90;;;;;;4992174;28;20454;-71
2024/01/24 10:53:27;;;;;;;3.90;0.80;;;14.10;99.90;;;;;;5013359;28;20171;-71
2024/01/24 10:55:54;;;;;;;0.70;0.70;;;14.30;99.90;;;;;;4998787;28;20187;-71
2024/01/24 10:58:22;;;;;;;0.70;0.70;;;14.10;99.90;;;;;;4991141;28;20430;-71
2024/01/24 11:00:48;;;;;;;1.10;0.60;;;13.70;99.90;;;;;;5000521;28;20536;-71
2024/01/24 11:03:14;;;;;;;1.53;0.80;;;13.50;99.90;;;;;;5008292;28;20477;-71
2024/01/24 11:05:43;;;;;;;1.93;0.70;;;13.30;99.90;;;;;;4999162;28;20739;-70
2024/01/24 11:08:20;;;;;;;0.80;0.80;;;13.10;99.90;;;;;;5011530;28;20437;-71
2024/01/24 11:10:48;;;;;;;0.63;0.60;;;12.90;99.90;;;;;;4991546;28;20477;-71
2024/01/24 11:13:17;;;;;;;1.00;0.70;;;12.70;99.90;;;;;;4996795;28;20439;-71
2024/01/24 11:15:43;;;;;;;1.20;1.10;;;12.40;99.90;;;;;;5007203;28;20533;-72
2024/01/24 11:18:20;;;;;;;0.70;0.70;;;12.20;99.90;;;;;;5000371;28;20858;-72
2024/01/24 11:20:56;;;;;;;0.60;0.60;;;12.10;99.90;;;;;;5000920;28;20458;-71
2024/01/24 11:23:44;;;;;;;1.73;0.97;;;12.00;99.90;;;;;;4993830;28;20448;-72
2024/01/24 11:26:30;;;;;;;1.77;1.60;;;11.90;99.90;;;;;;5002604;28;20466;-72
2024/01/24 11:29:12;;;;;;;11.10;5.50;;;11.90;99.90;;;;;;5009035;28;20805;-71
2024/01/24 11:31:42;;;;;;;7.30;2.03;;;11.90;99.90;;;;;;4973918;28;20423;-71
2024/01/24 11:34:12;;;;;;;8.73;2.80;;;12.00;99.90;;;;;;4992946;28;20489;-71
2024/01/24 11:36:46;;;;;;;5.93;2.27;;;12.00;99.90;;;;;;5012515;28;20425;-71
2024/01/24 11:39:39;;;;;;;1.50;1.30;;;12.10;99.90;;;;;;5001839;28;20488;-71
2024/01/24 11:42:36;;;;;;;2.00;1.77;;;12.10;99.90;;;;;;5009825;28;20504;-71
2024/01/24 11:45:16;;;;;;;2.70;1.30;;;12.10;99.90;;;;;;5004828;28;20870;-71
2024/01/24 11:47:43;;;;;;;2.57;1.20;;;12.10;99.90;;;;;;4997666;28;20476;-71
2024/01/24 11:50:11;;;;;;;1.40;0.83;;;12.10;99.90;;;;;;5009376;28;20461;-72
2024/01/24 11:52:36;;;;;;;1.67;0.70;;;12.00;99.90;;;;;;5006871;28;20471;-71
2024/01/24 11:55:02;;;;;;;3.37;0.90;;;12.00;99.90;;;;;;5004381;28;20462;-72
2024/01/24 11:57:29;;;;;;;1.30;1.20;;;12.00;99.90;;;;;;5002209;28;20191;-71
2024/01/24 11:59:55;;;;;;;2.03;1.40;;;12.00;99.90;;;;;;4998992;28;20681;-71
2024/01/24 12:02:21;;;;;;;2.60;1.23;;;12.10;99.90;;;;;;5007753;28;20436;-71
2024/01/24 12:04:50;;;;;;;1.37;1.20;;;12.20;99.90;;;;;;4998134;28;20505;-71
2024/01/24 12:07:17;;;;;;;1.53;1.03;;;12.30;99.90;;;;;;5011297;28;20457;-71
2024/01/24 12:09:42;;;;;;;5.67;3.70;;;12.40;99.90;;;;;;5005635;28;20482;-71
2024/01/24 12:12:12;;;;;;;1.73;1.33;;;12.40;99.90;;;;;;5003176;28;20935;-72
2024/01/24 12:14:38;;;;;;;2.43;1.03;;;12.40;99.90;;;;;;5012249;28;20171;-71
2024/01/24 12:17:04;;;;;;;4.10;3.70;;;12.30;99.90;;;;;;5001840;28;20880;-71
2024/01/24 12:19:30;;;;;;;2.50;1.10;;;12.30;99.90;;;;;;5009353;28;20533;-72
2024/01/24 12:21:58;;;;;;;2.90;0.83;;;12.30;99.90;;;;;;5005668;28;20187;-71
2024/01/24 12:24:23;;;;;;;2.43;0.80;;;12.40;99.90;;;;;;5005749;28;20431;-71
2024/01/24 12:26:49;;;;;;;1.00;0.90;;;12.40;99.90;;;;;;5000322;28;20437;-71
2024/01/24 12:29:14;;;;;;;1.03;0.60;;;12.50;99.90;;;;;;5003360;28;20269;-71
2024/01/24 12:31:45;;;;;;;1.73;1.00;;;12.60;99.90;;;;;;4998727;28;20187;-71
2024/01/24 12:34:11;;;;;;;1.80;1.13;;;12.70;99.90;;;;;;5002106;28;20183;-71
2024/01/24 12:36:37;;;;;;;7.70;1.13;;;12.80;99.90;;;;;;5003685;28;20947;-72
2024/01/24 12:39:05;;;;;;;2.10;1.07;;;12.80;99.90;;;;;;5013778;28;20422;-71
2024/01/24 12:41:31;;;;;;;1.43;1.33;;;12.80;99.90;;;;;;4994727;28;20191;-71
2024/01/24 12:43:57;;;;;;;3.60;0.90;;;12.80;99.90;;;;;;5004032;28;20884;-71
2024/01/24 12:46:24;;;;;;;0.90;0.90;;;12.80;99.90;;;;;;5007593;28;20583;-71